Live aus Altenrhein
LIVE
LSZR 270020Z AUTO VRB02KT CAVOK 13/10 Q1019

People´s Info Center:

Öffnungszeiten Mo-Fr, 8-18 Uhr

 

info@peoples.ch

 
Aus Österreich:

T: +43 (0)5572 203 610

 

Aus CH / LI / DE:

T: +41 (0)71 858 51 60

 

Webcam Flughafen St.Gallen-Altenrhein

Live-Bilder und Zeitraffer LSZR / ACH.

 

Live aus Altenrhein
LIVE
LSZR 270020Z AUTO VRB02KT CAVOK 13/10 Q1019
Zeitraffer heute
2017-05-27 00:14:53
LSZR 262150Z AUTO VRB01KT CAVOK 16/10 Q1019
Zeitraffer gestern
2017-05-26 00:14:53
LSZR 252150Z AUTO VRB03KT CAVOK 16/09 Q1021
Zeitraffer vor 3 Tagen
2017-05-24 00:14:56
LSZR 232150Z AUTO VRB02KT 9999 OVC070 17/13 Q1021